createdAt,value
2018-07-22T00:02:16.493Z,19.63
2018-07-22T00:04:44.516Z,30.23
2018-07-22T00:07:12.588Z,17.53
2018-07-22T00:09:40.520Z,23.60
2018-07-22T00:12:08.916Z,24.07
2018-07-22T00:14:36.995Z,25.33
2018-07-22T00:17:05.057Z,19.50
2018-07-22T00:19:33.131Z,22.63
2018-07-22T00:22:02.660Z,22.03
2018-07-22T00:24:30.768Z,27.77
2018-07-22T00:26:58.656Z,18.50
2018-07-22T00:29:26.568Z,19.53
2018-07-22T00:31:54.804Z,26.30
2018-07-22T00:34:22.792Z,20.47
2018-07-22T00:36:50.769Z,17.70
2018-07-22T00:39:18.731Z,19.73
2018-07-22T00:41:46.868Z,18.73
2018-07-22T00:44:14.875Z,18.43
2018-07-22T00:46:42.860Z,23.40
2018-07-22T00:49:10.911Z,19.77
2018-07-22T00:51:38.883Z,23.60
2018-07-22T00:54:06.959Z,17.93
2018-07-22T00:56:35.332Z,21.50
2018-07-22T00:59:03.295Z,24.57
2018-07-22T01:01:31.432Z,18.87
2018-07-22T01:03:59.584Z,23.80
2018-07-22T01:06:27.524Z,22.63
2018-07-22T01:08:55.493Z,22.33
2018-07-22T01:11:23.455Z,25.73
2018-07-22T01:13:51.424Z,24.00
2018-07-22T01:16:19.388Z,22.90
2018-07-22T01:18:47.363Z,29.23
2018-07-22T01:21:15.328Z,27.17
2018-07-22T01:23:43.307Z,35.50
2018-07-22T01:26:11.581Z,23.77
2018-07-22T01:28:39.560Z,24.90
2018-07-22T01:31:07.737Z,37.53
2018-07-22T01:33:35.896Z,31.43
2018-07-22T01:36:03.731Z,30.43
2018-07-22T01:38:31.607Z,37.93
2018-07-22T01:40:59.489Z,34.80
2018-07-22T01:43:27.560Z,35.63
2018-07-22T01:45:55.504Z,38.93
2018-07-22T01:48:23.395Z,30.30
2018-07-22T01:50:51.363Z,39.10
2018-07-22T01:53:19.323Z,45.70
2018-07-22T01:55:47.311Z,29.73
2018-07-22T01:58:15.268Z,48.43
2018-07-22T02:00:43.240Z,41.30
2018-07-22T02:03:11.392Z,33.07
2018-07-22T02:05:39.251Z,27.00
2018-07-22T02:08:07.148Z,37.10
2018-07-22T02:10:35.116Z,34.57
2018-07-22T02:13:02.981Z,24.57
2018-07-22T02:15:30.956Z,22.43
2018-07-22T02:17:58.912Z,26.17
2018-07-22T02:20:27.092Z,31.00
2018-07-22T02:22:54.956Z,28.53
2018-07-22T02:25:22.934Z,23.03
2018-07-22T02:27:50.892Z,25.40
2018-07-22T02:30:18.848Z,32.47
2018-07-22T02:32:46.836Z,35.67
2018-07-22T02:35:14.928Z,32.73
2018-07-22T02:37:42.977Z,34.13
2018-07-22T02:40:10.941Z,36.80
2018-07-22T02:42:38.916Z,50.20
2018-07-22T02:45:06.824Z,38.20
2018-07-22T02:47:34.752Z,45.47
2018-07-22T02:50:02.992Z,38.00
2018-07-22T02:52:30.998Z,51.23
2018-07-22T02:54:58.960Z,42.90
2018-07-22T02:57:27.069Z,40.80
2018-07-22T02:59:55.136Z,39.53
2018-07-22T03:02:23.073Z,39.03
2018-07-22T03:04:51.024Z,46.17
2018-07-22T03:07:18.910Z,46.40
2018-07-22T03:09:46.777Z,50.40
2018-07-22T03:12:14.735Z,38.97
2018-07-22T03:14:42.820Z,34.90
2018-07-22T03:17:12.004Z,37.50
2018-07-22T03:19:40.096Z,29.50
2018-07-22T03:22:08.177Z,34.20
2018-07-22T03:24:36.450Z,33.93
2018-07-22T03:27:04.712Z,31.30
2018-07-22T03:29:32.678Z,32.63
2018-07-22T03:32:00.631Z,31.00
2018-07-22T03:34:28.620Z,33.00
2018-07-22T03:36:56.584Z,27.90
2018-07-22T03:39:24.444Z,32.40
2018-07-22T03:41:52.506Z,32.67
2018-07-22T03:44:20.587Z,39.53
2018-07-22T03:46:48.464Z,34.50
2018-07-22T03:49:16.628Z,44.60
2018-07-22T03:51:44.599Z,29.30
2018-07-22T03:54:12.524Z,31.93
2018-07-22T03:56:40.436Z,39.43
2018-07-22T03:59:08.721Z,29.93
2018-07-22T04:01:36.776Z,31.37
2018-07-22T04:04:04.756Z,34.63
2018-07-22T04:06:32.803Z,26.80
2018-07-22T04:09:00.801Z,31.77
2018-07-22T04:11:28.759Z,28.57
2018-07-22T04:13:56.831Z,24.87
2018-07-22T04:16:24.773Z,27.67
2018-07-22T04:18:54.055Z,29.20
2018-07-22T04:21:24.012Z,35.17
2018-07-22T04:23:51.975Z,32.67
2018-07-22T04:26:20.897Z,37.50
2018-07-22T04:28:49.260Z,32.40
2018-07-22T04:31:17.448Z,27.60
2018-07-22T04:33:45.392Z,28.30
2018-07-22T04:36:13.371Z,26.10
2018-07-22T04:38:41.329Z,36.70
2018-07-22T04:41:09.406Z,29.87
2018-07-22T04:43:37.351Z,25.80
2018-07-22T04:46:05.252Z,31.70
2018-07-22T04:48:33.176Z,26.57
2018-07-22T04:51:01.268Z,25.73
2018-07-22T04:53:29.261Z,26.97
2018-07-22T04:55:57.300Z,27.53
2018-07-22T04:58:25.289Z,24.63
2018-07-22T05:00:53.367Z,31.30
2018-07-22T05:03:21.320Z,25.23
2018-07-22T05:05:49.292Z,29.30
2018-07-22T05:08:17.468Z,30.47
2018-07-22T05:10:45.440Z,24.90
2018-07-22T05:13:13.388Z,32.10
2018-07-22T05:15:41.272Z,28.17
2018-07-22T05:18:09.211Z,24.90
2018-07-22T05:20:37.249Z,22.60
2018-07-22T05:23:05.280Z,29.40
2018-07-22T05:25:33.368Z,27.00
2018-07-22T05:28:01.320Z,28.17
2018-07-22T05:30:29.261Z,29.83
2018-07-22T05:32:57.261Z,24.23
2018-07-22T05:35:25.200Z,29.97
2018-07-22T05:37:53.104Z,23.73
2018-07-22T05:40:21.157Z,27.30
2018-07-22T05:42:49.128Z,28.87
2018-07-22T05:45:17.311Z,21.97
2018-07-22T05:47:45.279Z,29.30
2018-07-22T05:50:13.245Z,24.47
2018-07-22T05:52:41.336Z,20.63
2018-07-22T05:55:09.387Z,25.23
2018-07-22T05:57:37.350Z,22.13
2018-07-22T06:00:06.698Z,24.20
2018-07-22T06:02:34.824Z,23.47
2018-07-22T06:05:02.895Z,22.90
2018-07-22T06:07:30.844Z,19.30
2018-07-22T06:09:58.712Z,21.73
2018-07-22T06:12:26.604Z,23.43
2018-07-22T06:14:54.768Z,20.63
2018-07-22T06:17:22.751Z,16.73
2018-07-22T06:19:50.816Z,17.60
2018-07-22T06:22:18.784Z,16.53
2018-07-22T06:24:46.800Z,16.23
2018-07-22T06:27:14.820Z,21.30
2018-07-22T06:29:42.877Z,16.43
2018-07-22T06:32:11.176Z,14.97
2018-07-22T06:34:39.108Z,16.33
2018-07-22T06:37:07.489Z,18.47
2018-07-22T06:39:35.377Z,17.43
2018-07-22T06:42:03.400Z,20.60
2018-07-22T06:44:31.420Z,18.77
2018-07-22T06:46:59.392Z,16.97
2018-07-22T06:49:27.256Z,17.27
2018-07-22T06:51:55.308Z,17.10
2018-07-22T06:54:23.285Z,14.77
2018-07-22T06:56:51.268Z,17.80
2018-07-22T06:59:19.207Z,17.33
2018-07-22T07:01:47.102Z,18.17
2018-07-22T07:04:15.075Z,16.93
2018-07-22T07:06:43.123Z,16.83
2018-07-22T07:09:12.048Z,19.47
2018-07-22T07:11:40.321Z,17.17
2018-07-22T07:14:08.709Z,15.70
2018-07-22T07:16:36.882Z,17.30
2018-07-22T07:19:05.120Z,18.00
2018-07-22T07:21:32.980Z,14.07
2018-07-22T07:24:00.877Z,18.17
2018-07-22T07:26:28.732Z,14.47
2018-07-22T07:28:56.704Z,18.27
2018-07-22T07:31:24.652Z,18.13
2018-07-22T07:33:52.553Z,17.40
2018-07-22T07:36:20.604Z,17.77
2018-07-22T07:38:48.594Z,16.60
2018-07-22T07:41:16.572Z,17.40
2018-07-22T07:43:44.716Z,15.70
2018-07-22T07:46:12.692Z,18.60
2018-07-22T07:48:40.655Z,17.90
2018-07-22T07:51:08.632Z,14.67
2018-07-22T07:53:36.564Z,16.47
2018-07-22T07:56:04.567Z,14.23
2018-07-22T07:58:32.668Z,16.87
2018-07-22T08:01:00.712Z,14.47
2018-07-22T08:03:28.672Z,15.17
2018-07-22T08:05:56.653Z,13.67
2018-07-22T08:08:24.604Z,15.13
2018-07-22T08:10:52.744Z,16.33
2018-07-22T08:13:20.803Z,14.57
2018-07-22T08:15:48.722Z,15.43
2018-07-22T08:18:16.701Z,14.17
2018-07-22T08:20:45.610Z,13.93
2018-07-22T08:26:24.817Z,14.93
2018-07-22T08:29:03.976Z,15.97
2018-07-22T08:31:31.950Z,18.53
2018-07-22T08:33:59.876Z,16.00
2018-07-22T08:36:27.801Z,15.57
2018-07-22T08:38:55.736Z,15.47
2018-07-22T08:41:23.619Z,14.77
2018-07-22T08:43:51.580Z,16.40
2018-07-22T08:46:19.544Z,16.97
2018-07-22T08:48:49.048Z,16.00
2018-07-22T08:51:17.016Z,17.40
2018-07-22T08:53:45.031Z,18.50
2018-07-22T08:56:12.904Z,18.20
2018-07-22T08:58:40.970Z,17.60
2018-07-22T09:01:08.905Z,17.93
2018-07-22T09:03:36.840Z,17.67
2018-07-22T09:06:05.013Z,17.37
2018-07-22T09:08:32.881Z,17.50
2018-07-22T09:11:00.778Z,20.70
2018-07-22T09:13:28.759Z,18.60
2018-07-22T09:15:56.689Z,17.60
2018-07-22T09:18:24.991Z,17.90
2018-07-22T09:20:52.947Z,18.77
2018-07-22T09:23:20.918Z,16.60
2018-07-22T09:25:48.891Z,17.87
2018-07-22T09:28:16.896Z,18.27
2018-07-22T09:30:44.828Z,17.17
2018-07-22T09:33:12.744Z,15.50
2018-07-22T09:35:40.664Z,17.03
2018-07-22T09:38:08.628Z,17.17
2018-07-22T09:40:36.633Z,14.67
2018-07-22T09:43:04.780Z,14.07
2018-07-22T09:45:32.877Z,13.80
2018-07-22T09:48:00.942Z,13.80
2018-07-22T09:50:28.900Z,14.33
2018-07-22T09:52:56.876Z,13.90
2018-07-22T09:55:24.754Z,16.50
2018-07-22T09:57:52.716Z,14.13
2018-07-22T10:00:26.277Z,15.33
2018-07-22T10:02:54.262Z,14.47
2018-07-22T10:05:22.146Z,14.50
2018-07-22T10:07:50.120Z,16.20
2018-07-22T10:10:18.193Z,13.07
2018-07-22T10:12:46.148Z,14.13
2018-07-22T10:15:14.260Z,12.37
2018-07-22T10:17:42.423Z,12.80
2018-07-22T10:20:10.341Z,13.77
2018-07-22T10:22:38.539Z,12.80
2018-07-22T10:25:06.457Z,11.17
2018-07-22T10:27:34.372Z,13.43
2018-07-22T10:30:02.232Z,12.07
2018-07-22T10:32:30.210Z,12.33
2018-07-22T10:34:58.186Z,13.00
2018-07-22T10:37:26.256Z,13.43
2018-07-22T10:39:54.339Z,11.90
2018-07-22T10:42:22.500Z,14.93
2018-07-22T10:44:50.880Z,11.77
2018-07-22T10:47:18.861Z,11.97
2018-07-22T10:49:46.801Z,11.73
2018-07-22T10:52:15.192Z,11.47
2018-07-22T10:54:43.171Z,10.50
2018-07-22T10:57:11.357Z,12.03
2018-07-22T10:59:39.600Z,13.17
2018-07-22T11:02:07.819Z,12.87
2018-07-22T11:04:35.769Z,12.90
2018-07-22T11:07:04.047Z,11.93
2018-07-22T11:09:32.327Z,12.73
2018-07-22T11:12:00.295Z,13.03
2018-07-22T11:14:28.578Z,11.73
2018-07-22T11:16:56.616Z,12.73
2018-07-22T11:19:24.857Z,12.13
2018-07-22T11:21:52.813Z,12.57
2018-07-22T11:24:20.779Z,12.17
2018-07-22T11:26:49.097Z,11.77
2018-07-22T11:29:17.020Z,12.20
2018-07-22T11:31:45.045Z,11.97
2018-07-22T11:34:13.224Z,11.67
2018-07-22T11:36:41.149Z,12.27
2018-07-22T11:39:10.198Z,12.23
2018-07-22T11:41:38.820Z,11.37
2018-07-22T11:44:07.312Z,12.33
2018-07-22T11:46:35.809Z,12.53
2018-07-22T11:49:03.952Z,11.60
2018-07-22T11:51:32.038Z,12.33
2018-07-22T11:54:00.368Z,11.77
2018-07-22T11:56:28.653Z,12.53
2018-07-22T11:58:56.917Z,13.60
2018-07-22T12:01:25.107Z,11.63
2018-07-22T12:03:53.043Z,13.10
2018-07-22T12:06:21.237Z,13.37
2018-07-22T12:08:49.407Z,13.07
2018-07-22T12:11:17.893Z,12.77
2018-07-22T12:13:46.265Z,12.73
2018-07-22T12:16:14.215Z,12.77
2018-07-22T12:18:42.204Z,12.67
2018-07-22T12:21:10.539Z,12.43
2018-07-22T12:23:38.775Z,14.20
2018-07-22T12:26:06.972Z,12.33
2018-07-22T12:28:35.112Z,13.43
2018-07-22T12:31:03.745Z,13.40
2018-07-22T12:33:31.789Z,14.17
2018-07-22T12:35:59.756Z,14.23
2018-07-22T12:38:27.973Z,12.47
2018-07-22T12:40:56.001Z,12.67
2018-07-22T12:43:23.939Z,14.37
2018-07-22T12:45:51.848Z,12.07
2018-07-22T12:48:19.823Z,12.90
2018-07-22T12:50:47.868Z,14.07
2018-07-22T12:53:15.868Z,14.07
2018-07-22T12:55:43.809Z,16.37
2018-07-22T12:58:11.788Z,13.07
2018-07-22T13:00:39.752Z,12.63
2018-07-22T13:03:07.838Z,13.53
2018-07-22T13:05:36.452Z,14.10
2018-07-22T13:08:04.351Z,14.30
2018-07-22T13:10:32.425Z,13.30
2018-07-22T13:13:00.392Z,13.00
2018-07-22T13:15:28.283Z,14.70
2018-07-22T13:17:56.252Z,13.07
2018-07-22T13:20:24.316Z,15.40
2018-07-22T13:22:52.296Z,15.40
2018-07-22T13:25:20.260Z,16.07
2018-07-22T13:27:48.349Z,14.93
2018-07-22T13:30:16.396Z,15.43
2018-07-22T13:32:44.268Z,15.53
2018-07-22T13:35:12.544Z,16.00
2018-07-22T13:37:40.620Z,14.47
2018-07-22T13:40:08.598Z,15.87
2018-07-22T13:42:36.555Z,15.70
2018-07-22T13:45:05.095Z,15.57
2018-07-22T13:47:33.016Z,16.57
2018-07-22T13:50:00.989Z,14.57
2018-07-22T13:52:29.132Z,15.27
2018-07-22T13:54:57.097Z,17.67
2018-07-22T13:57:25.081Z,15.17
2018-07-22T13:59:53.025Z,16.80
2018-07-22T14:02:21.028Z,15.63
2018-07-22T14:04:48.988Z,16.90
2018-07-22T14:07:16.996Z,16.90
2018-07-22T14:09:45.105Z,16.77
2018-07-22T14:12:13.000Z,16.47
2018-07-22T14:14:40.972Z,15.07
2018-07-22T14:17:08.941Z,16.70
2018-07-22T14:19:37.120Z,17.80
2018-07-22T14:22:05.088Z,16.40
2018-07-22T14:24:33.057Z,15.20
2018-07-22T14:27:01.013Z,17.77
2018-07-22T14:29:29.001Z,14.80
2018-07-22T14:31:56.975Z,15.80
2018-07-22T14:34:25.028Z,14.90
2018-07-22T14:36:53.150Z,15.47
2018-07-22T14:39:21.073Z,17.30
2018-07-22T14:41:49.132Z,18.17
2018-07-22T14:44:17.103Z,16.13
2018-07-22T14:46:45.310Z,17.70
2018-07-22T14:49:13.224Z,17.77
2018-07-22T14:51:41.226Z,17.93
2018-07-22T14:54:09.243Z,18.60
2018-07-22T14:56:37.161Z,16.00
2018-07-22T14:59:05.223Z,15.27
2018-07-22T15:01:33.296Z,13.00
2018-07-22T15:04:15.027Z,14.07
2018-07-22T15:06:44.173Z,13.10
2018-07-22T15:09:12.155Z,15.17
2018-07-22T15:11:40.250Z,13.47
2018-07-22T15:14:08.401Z,13.30
2018-07-22T15:16:36.237Z,13.27
2018-07-22T15:19:04.309Z,12.00
2018-07-22T15:21:32.255Z,10.73
2018-07-22T15:24:00.379Z,11.93
2018-07-22T15:26:28.444Z,10.93
2018-07-22T15:28:56.428Z,10.03
2018-07-22T15:31:24.357Z,10.63
2018-07-22T15:33:52.249Z,8.77
2018-07-22T15:36:20.197Z,8.27
2018-07-22T15:38:48.184Z,9.90
2018-07-22T15:41:16.160Z,8.60
2018-07-22T15:43:44.300Z,8.43
2018-07-22T15:46:12.305Z,8.83
2018-07-22T15:48:40.293Z,8.83
2018-07-22T15:51:08.347Z,9.40
2018-07-22T15:53:36.404Z,7.37
2018-07-22T15:56:04.510Z,8.70
2018-07-22T15:58:32.351Z,8.00
2018-07-22T16:01:00.320Z,7.70
2018-07-22T16:03:28.297Z,7.90
2018-07-22T16:05:56.220Z,8.20
2018-07-22T16:08:24.221Z,8.13
2018-07-22T16:10:52.388Z,7.90
2018-07-22T16:13:20.364Z,8.03
2018-07-22T16:15:48.331Z,9.00
2018-07-22T16:18:16.307Z,9.27
2018-07-22T16:20:44.364Z,7.33
2018-07-22T16:23:12.385Z,9.40
2018-07-22T16:25:40.415Z,7.90
2018-07-22T16:28:08.551Z,8.97
2018-07-22T16:30:36.537Z,8.33
2018-07-22T16:33:04.732Z,10.37
2018-07-22T16:35:32.696Z,9.07
2018-07-22T16:38:00.770Z,10.97
2018-07-22T16:40:28.716Z,11.80
2018-07-22T16:42:56.608Z,10.33
2018-07-22T16:45:24.677Z,12.10
2018-07-22T16:47:52.844Z,13.93
2018-07-22T16:50:20.797Z,13.60
2018-07-22T16:52:48.781Z,12.90
2018-07-22T16:55:16.716Z,10.33
2018-07-22T16:57:44.565Z,11.90
2018-07-22T17:00:12.457Z,12.53
2018-07-22T17:02:40.465Z,10.90
2018-07-22T17:05:08.422Z,11.97
2018-07-22T17:07:36.408Z,12.50
2018-07-22T17:10:04.457Z,12.60
2018-07-22T17:12:32.560Z,10.43
2018-07-22T17:15:00.616Z,10.57
2018-07-22T17:17:29.043Z,11.80
2018-07-22T17:19:57.326Z,9.60
2018-07-22T17:22:25.332Z,9.77
2018-07-22T17:24:53.313Z,11.83
2018-07-22T17:27:21.443Z,9.03
2018-07-22T17:29:49.572Z,9.43
2018-07-22T17:32:17.844Z,10.93
2018-07-22T17:34:46.715Z,10.20
2018-07-22T17:37:14.685Z,10.07
2018-07-22T17:39:42.845Z,10.20
2018-07-22T17:42:11.028Z,11.23
2018-07-22T17:44:39.032Z,11.67
2018-07-22T17:47:07.100Z,12.67
2018-07-22T17:49:35.040Z,14.90
2018-07-22T17:52:02.970Z,14.33
2018-07-22T17:54:31.010Z,13.23
2018-07-22T17:56:59.041Z,14.60
2018-07-22T17:59:26.904Z,15.23
2018-07-22T18:01:55.004Z,13.33
2018-07-22T18:04:23.051Z,15.50
2018-07-22T18:06:51.086Z,15.13
2018-07-22T18:09:19.201Z,16.43
2018-07-22T18:11:47.288Z,16.27
2018-07-22T18:14:15.715Z,15.97
2018-07-22T18:16:43.735Z,16.33
2018-07-22T18:19:11.991Z,17.27
2018-07-22T18:21:40.234Z,16.50
2018-07-22T18:24:08.217Z,19.23
2018-07-22T18:26:36.213Z,18.93
2018-07-22T18:29:04.300Z,20.57
2018-07-22T18:31:32.469Z,23.43
2018-07-22T18:34:00.574Z,18.43
2018-07-22T18:36:28.596Z,20.17
2018-07-22T18:38:56.567Z,19.73
2018-07-22T18:41:24.836Z,19.73
2018-07-22T18:43:52.784Z,20.30
2018-07-22T18:46:20.972Z,21.00
2018-07-22T18:48:49.101Z,21.17
2018-07-22T18:51:17.225Z,22.17
2018-07-22T18:53:45.476Z,22.90
2018-07-22T18:56:13.820Z,23.87
2018-07-22T18:58:41.844Z,23.00
2018-07-22T19:01:09.920Z,25.70
2018-07-22T19:03:38.015Z,25.43
2018-07-22T19:06:06.077Z,26.73
2018-07-22T19:08:34.017Z,25.93
2018-07-22T19:11:02.000Z,28.73
2018-07-22T19:13:30.085Z,28.30
2018-07-22T19:15:58.040Z,26.43
2018-07-22T19:18:26.004Z,28.23
2018-07-22T19:20:53.976Z,32.00
2018-07-22T19:23:22.092Z,33.70
2018-07-22T19:25:50.431Z,27.37
2018-07-22T19:28:18.495Z,30.07
2018-07-22T19:30:55.035Z,37.20
2018-07-22T19:33:23.032Z,31.80
2018-07-22T19:35:51.612Z,35.23
2018-07-22T19:38:19.940Z,35.43
2018-07-22T19:40:47.957Z,38.57
2018-07-22T19:43:15.997Z,45.23
2018-07-22T19:45:44.131Z,38.97
2018-07-22T19:48:12.477Z,42.70
2018-07-22T19:50:40.456Z,45.17
2018-07-22T19:53:08.427Z,45.83
2018-07-22T19:55:36.536Z,46.87
2018-07-22T19:58:04.988Z,41.83
2018-07-22T20:00:33.205Z,45.20
2018-07-22T20:03:01.347Z,55.40
2018-07-22T20:05:29.725Z,59.63
2018-07-22T20:07:57.671Z,59.77
2018-07-22T20:10:25.716Z,44.27
2018-07-22T20:12:53.924Z,58.37
2018-07-22T20:15:21.981Z,39.40
2018-07-22T20:17:50.065Z,49.23
2018-07-22T20:20:18.135Z,41.87
2018-07-22T20:22:46.308Z,47.97
2018-07-22T20:25:14.280Z,58.50
2018-07-22T20:27:42.212Z,64.83
2018-07-22T20:30:10.200Z,53.07
2018-07-22T20:32:38.284Z,74.63
2018-07-22T20:35:06.420Z,59.90
2018-07-22T20:37:34.437Z,73.43
2018-07-22T20:40:02.510Z,75.13
2018-07-22T20:42:30.560Z,59.13
2018-07-22T20:44:58.736Z,88.93
2018-07-22T20:47:26.816Z,164.47
2018-07-22T20:49:54.835Z,85.40
2018-07-22T20:52:22.760Z,58.83
2018-07-22T20:54:50.920Z,60.53
2018-07-22T20:57:19.099Z,64.37
2018-07-22T20:59:47.068Z,67.17
2018-07-22T21:02:15.030Z,93.33
2018-07-22T21:04:43.112Z,69.07
2018-07-22T21:07:11.371Z,77.17
2018-07-22T21:09:39.355Z,71.27
2018-07-22T21:12:51.252Z,84.37
2018-07-22T21:15:19.645Z,82.00
2018-07-22T21:17:49.026Z,63.07
2018-07-22T21:20:18.166Z,91.17
2018-07-22T21:22:46.248Z,94.13
2018-07-22T21:25:14.884Z,71.40
2018-07-22T21:27:42.856Z,68.50
2018-07-22T21:30:11.558Z,65.70
2018-07-22T21:32:39.731Z,102.83
2018-07-22T21:35:08.267Z,74.57
2018-07-22T21:37:36.364Z,81.77
2018-07-22T21:40:05.176Z,73.23
2018-07-22T21:42:33.419Z,70.00
2018-07-22T21:45:02.120Z,88.67
2018-07-22T21:47:30.160Z,80.53
2018-07-22T21:49:58.155Z,87.30
2018-07-22T21:52:26.249Z,81.57
2018-07-22T21:54:54.308Z,68.23
2018-07-22T21:57:22.303Z,86.23
2018-07-22T21:59:50.696Z,86.30
2018-07-22T22:02:18.704Z,70.93
2018-07-22T22:04:46.680Z,70.80
2018-07-22T22:07:14.849Z,68.33
2018-07-22T22:09:43.146Z,81.60
2018-07-22T22:12:11.204Z,69.97
2018-07-22T22:14:39.066Z,71.97
2018-07-22T22:17:07.159Z,67.17
2018-07-22T22:19:35.196Z,63.53
2018-07-22T22:22:03.324Z,62.73
2018-07-22T22:24:31.377Z,60.83
2018-07-22T22:26:59.528Z,65.33
2018-07-22T22:29:27.503Z,60.93
2018-07-22T22:31:55.757Z,71.03
2018-07-22T22:34:24.255Z,70.13
2018-07-22T22:36:52.216Z,79.17
2018-07-22T22:39:20.300Z,64.13
2018-07-22T22:41:48.236Z,66.43
2018-07-22T22:44:16.208Z,66.67
2018-07-22T22:46:44.189Z,71.63
2018-07-22T22:49:12.376Z,74.90
2018-07-22T22:51:40.348Z,65.50
2018-07-22T22:54:08.273Z,78.10
2018-07-22T22:56:36.492Z,66.53
2018-07-22T22:59:17.139Z,59.77
2018-07-22T23:01:45.354Z,69.13
2018-07-22T23:04:13.602Z,75.10
2018-07-22T23:06:41.672Z,88.43
2018-07-22T23:09:12.358Z,75.83
2018-07-22T23:11:40.779Z,76.43
2018-07-22T23:14:09.056Z,79.50
2018-07-22T23:16:37.947Z,76.73
2018-07-22T23:19:06.116Z,84.43
2018-07-22T23:21:34.403Z,66.47
2018-07-22T23:24:02.576Z,70.97
2018-07-22T23:26:31.351Z,73.37
2018-07-22T23:28:59.739Z,80.73
2018-07-22T23:31:27.808Z,70.83
2018-07-22T23:33:56.100Z,68.87
2018-07-22T23:36:24.056Z,95.37
2018-07-22T23:38:52.132Z,96.20
2018-07-22T23:41:20.229Z,87.90
2018-07-22T23:43:48.295Z,102.17
2018-07-22T23:46:16.464Z,102.27
2018-07-22T23:48:44.824Z,114.73
2018-07-22T23:51:12.963Z,121.13
2018-07-22T23:53:41.285Z,134.53
2018-07-22T23:56:09.235Z,101.23
2018-07-22T23:58:37.203Z,131.07
